Shercock, Ireland
Current Conditions -  °F | °C
As of 1:00 AM on Saturday 20 Dec 2014 (Local Time) from EIDW Reporting Station
Broken Clouds Broken Clouds  
Wind Chill: 31°   Ceiling: 4500
Heat Index: 41°   Visibility: 6mi
Dew Point: 37°   Wind: 23mph
Humidity: 87%   Direction: 240°WSW
Pressure: 30.12"   Gusts: NA
Location:  54°N, 6.9°W
Report Text: EIDW 200000Z 24020KT 9999 FEW020 BKN045 05/03 Q1020 NOSIG
Loading
Personal Weather Stations






























Interactive Weather Map New forecast layout! Learn more

10-Day Weather Forecast

Advertisements
Track Severe Weather on mobile